Time;durP1;ratioP1;P1;durP2;ratioP2;P2;SDS_P1;SDS_P2;PMS_P1;PMS_P2;Temp;Humidity;BMP_temperature;BMP_pressure;BME280_temperature;BME280_humidity;BME280_pressure;Samples;Min_cycle;Max_cycle;Signal;HPM_P1;HPM_P2
2021/08/05 00:04:43;;;;;;;14.70;12.98;;;;;;;17.45;64.78;101208.72;10478455;28;20538;-80
2021/08/05 00:09:43;;;;;;;15.70;11.27;;;;;;;17.43;64.78;101189.81;10496324;28;20033;-80
2021/08/05 00:14:44;;;;;;;12.45;10.57;;;;;;;17.56;64.50;101204.34;10477610;28;20105;-80
2021/08/05 00:19:45;;;;;;;14.18;10.63;;;;;;;17.57;64.02;101197.78;10495395;28;20028;-80
2021/08/05 00:24:45;;;;;;;13.73;12.35;;;;;;;17.42;63.98;101185.41;10476002;28;20123;-80
2021/08/05 00:29:45;;;;;;;13.13;11.82;;;;;;;17.37;64.19;101193.50;10477390;28;20040;-80
2021/08/05 00:34:46;;;;;;;15.32;11.65;;;;;;;17.27;64.36;101190.50;10496003;28;20490;-80
2021/08/05 00:39:46;;;;;;;14.52;10.68;;;;;;;17.18;64.50;101189.16;10495635;28;20357;-80
2021/08/05 00:44:47;;;;;;;14.10;12.25;;;;;;;17.10;64.62;101184.00;10476555;28;20091;-80
2021/08/05 00:49:47;;;;;;;13.50;10.77;;;;;;;17.02;64.55;101173.44;10494946;28;20131;-80
2021/08/05 00:54:48;;;;;;;17.10;12.75;;;;;;;16.96;64.63;101169.72;10495595;28;20131;-81
2021/08/05 00:59:48;;;;;;;15.02;13.30;;;;;;;16.89;64.61;101167.06;10476450;28;20372;-80
2021/08/05 01:04:52;;;;;;;17.60;13.20;;;;;;;16.85;64.74;101167.78;10477127;28;20033;-80
2021/08/05 01:10:14;;;;;;;20.58;13.90;;;;;;;16.66;63.36;101150.56;10477590;28;20029;-80
2021/08/05 01:15:20;;;;;;;17.02;13.45;;;;;;;16.69;65.18;101155.56;10494817;28;20025;-80
2021/08/05 01:20:21;;;;;;;17.88;13.77;;;;;;;16.61;65.24;101159.44;10479380;28;20033;-79
2021/08/05 01:26:00;;;;;;;15.57;13.98;;;;;;;16.55;63.58;101157.63;10462072;28;20049;-79
2021/08/05 01:31:02;;;;;;;17.33;13.80;;;;;;;16.54;65.22;101164.16;10497068;28;20036;-80
2021/08/05 01:36:02;;;;;;;16.30;14.57;;;;;;;16.34;65.58;101134.38;10478253;28;20029;-80
2021/08/05 01:41:04;;;;;;;22.38;14.40;;;;;;;16.46;65.80;101150.81;10478448;28;20373;-80
2021/08/05 01:46:04;;;;;;;18.40;15.57;;;;;;;16.37;65.77;101142.13;10495809;28;20196;-80
2021/08/05 01:51:05;;;;;;;20.67;14.18;;;;;;;16.38;65.59;101151.97;10476557;28;20033;-80
2021/08/05 01:56:06;;;;;;;19.63;15.15;;;;;;;16.33;65.72;101146.34;10489246;28;20045;-80
2021/08/05 02:01:06;;;;;;;19.33;15.45;;;;;;;16.33;65.73;101149.06;10469795;28;20487;-80
2021/08/05 02:06:19;;;;;;;20.48;16.27;;;;;;;16.24;64.69;101139.53;10471440;28;20041;-80
2021/08/05 02:11:23;;;;;;;15.73;13.98;;;;;;;16.20;65.58;101121.94;10470661;28;20025;-80
2021/08/05 02:16:28;;;;;;;24.98;19.00;;;;;;;15.82;65.24;101062.91;10469278;28;20147;-80
2021/08/05 02:21:28;;;;;;;21.80;18.20;;;;;;;16.19;65.45;101139.41;10452887;28;20119;-80
2021/08/05 02:26:29;;;;;;;23.30;17.70;;;;;;;16.12;65.82;101116.78;10469104;28;20119;-80
2021/08/05 02:31:29;;;;;;;21.27;16.98;;;;;;;16.12;65.85;101111.31;10453135;28;20037;-80
2021/08/05 02:36:30;;;;;;;23.38;16.60;;;;;;;16.02;66.16;101090.84;10486641;28;20028;-80
2021/08/05 02:41:30;;;;;;;21.67;16.70;;;;;;;16.08;65.74;101107.38;10452744;28;20061;-80
2021/08/05 02:46:30;;;;;;;27.98;18.27;;;;;;;16.06;66.00;101102.13;10486317;28;20128;-80
2021/08/05 02:51:31;;;;;;;21.48;19.13;;;;;;;15.94;65.99;101093.03;10492584;28;20037;-80
2021/08/05 02:56:33;;;;;;;27.65;19.58;;;;;;;16.00;65.82;101092.13;10459777;28;20048;-80
2021/08/05 03:01:34;;;;;;;21.13;17.25;;;;;;;15.89;65.79;101087.41;10482058;28;20476;-80
2021/08/05 03:06:34;;;;;;;24.15;19.92;;;;;;;15.92;66.26;101093.28;10504248;28;20044;-80
2021/08/05 03:11:35;;;;;;;33.33;21.80;;;;;;;15.58;66.35;101040.91;10486760;28;20379;-80
2021/08/05 03:16:35;;;;;;;24.80;17.92;;;;;;;15.81;66.17;101094.03;10503720;28;20043;-80
2021/08/05 03:21:36;;;;;;;21.10;18.33;;;;;;;15.91;66.28;101102.50;10504724;28;20078;-80
2021/08/05 03:26:36;;;;;;;20.77;18.00;;;;;;;15.96;66.70;101099.94;10468818;28;20044;-80
2021/08/05 03:31:37;;;;;;;24.20;17.58;;;;;;;15.92;66.78;101067.84;10485894;28;20032;-80
2021/08/05 03:36:37;;;;;;;24.92;20.08;;;;;;;16.19;66.67;101079.28;10503054;28;20033;-80
2021/08/05 03:41:38;;;;;;;23.08;18.60;;;;;;;16.34;66.37;101084.34;10485789;28;20400;-80
2021/08/05 03:46:38;;;;;;;30.13;22.27;;;;;;;15.76;66.79;100960.06;10468290;28;20097;-80
2021/08/05 03:51:39;;;;;;;32.63;22.33;;;;;;;16.55;66.66;101067.41;10467872;28;20063;-80
2021/08/05 03:56:39;;;;;;;32.10;23.13;;;;;;;16.64;66.29;101066.00;10467895;28;20040;-80
2021/08/05 04:01:39;;;;;;;26.08;22.65;;;;;;;16.72;66.46;101057.50;10469024;28;20034;-80
2021/08/05 04:06:40;;;;;;;31.00;25.35;;;;;;;16.78;66.12;101055.72;10468689;28;20041;-80
2021/08/05 04:11:40;;;;;;;32.97;26.65;;;;;;;16.81;66.45;101054.44;10468440;28;20033;-80
2021/08/05 04:16:41;;;;;;;45.08;34.67;;;;;;;16.71;65.27;101054.97;10484192;28;20112;-80
2021/08/05 04:21:42;;;;;;;39.13;29.45;;;;;;;16.75;67.73;101061.66;10464678;28;20033;-80
2021/08/05 04:26:42;;;;;;;41.50;28.05;;;;;;;16.69;68.26;101049.75;10458699;28;20036;-80
2021/08/05 04:31:46;;;;;;;38.47;31.10;;;;;;;16.93;67.12;101049.81;10475406;28;20060;-79
2021/08/05 04:36:46;;;;;;;40.17;27.40;;;;;;;17.16;67.47;101057.19;10441936;28;20485;-80
2021/08/05 04:41:46;;;;;;;33.55;28.13;;;;;;;17.20;66.87;101055.69;10442817;28;20184;-80
2021/08/05 04:46:47;;;;;;;42.45;28.38;;;;;;;17.35;66.81;101050.53;10443958;28;20049;-80
2021/08/05 04:51:47;;;;;;;26.77;22.63;;;;;;;17.43;66.35;101050.19;10494257;28;20032;-80
2021/08/05 04:56:48;;;;;;;48.75;28.10;;;;;;;17.46;66.44;101050.78;10475271;28;20048;-79
2021/08/05 05:01:50;;;;;;;37.13;26.58;;;;;;;17.35;66.33;101033.28;10492816;28;20040;-81
2021/08/05 05:06:51;;;;;;;28.58;22.35;;;;;;;17.46;66.17;101050.78;10442003;28;20115;-79
2021/08/05 05:11:52;;;;;;;35.22;24.50;;;;;;;17.44;65.96;101051.84;10474110;28;20466;-80
2021/08/05 05:16:54;;;;;;;41.47;26.17;;;;;;;17.40;65.37;101058.03;10458212;28;20520;-80
2021/08/05 05:21:54;;;;;;;37.10;27.75;;;;;;;17.29;66.72;101054.22;10473816;28;20037;-82
2021/08/05 05:26:55;;;;;;;31.67;26.08;;;;;;;17.31;66.39;101054.84;10472690;28;20054;-79
2021/08/05 05:31:55;;;;;;;33.47;25.45;;;;;;;17.33;66.59;101052.69;10473661;28;20036;-80
2021/08/05 05:36:56;;;;;;;37.65;28.98;;;;;;;17.35;66.91;101053.28;10474251;28;20108;-80
2021/08/05 05:41:56;;;;;;;33.67;26.30;;;;;;;17.34;67.60;101031.63;10474587;28;20060;-79
2021/08/05 05:46:57;;;;;;;41.20;27.35;;;;;;;17.38;66.22;101036.38;10456702;28;20083;-79
2021/08/05 05:51:57;;;;;;;31.27;25.27;;;;;;;17.32;66.93;101001.75;10471306;28;20039;-80
2021/08/05 05:56:58;;;;;;;29.55;26.33;;;;;;;17.76;66.49;101043.22;10469974;28;20036;-80
2021/08/05 06:01:59;;;;;;;29.20;23.40;;;;;;;17.61;65.76;100991.72;10488969;28;20043;-80
2021/08/05 06:06:59;;;;;;;31.25;23.63;;;;;;;19.17;65.97;101038.97;10453642;28;20029;-80
2021/08/05 06:12:00;;;;;;;27.73;22.98;;;;;;;20.71;63.34;101036.19;10470085;28;20036;-80
2021/08/05 06:17:00;;;;;;;21.85;19.52;;;;;;;21.69;61.48;101028.34;10488140;28;20436;-80
2021/08/05 06:22:01;;;;;;;22.35;19.65;;;;;;;22.54;59.88;101030.00;10471330;28;20498;-80
2021/08/05 06:27:02;;;;;;;23.10;18.48;;;;;;;23.52;58.22;101029.69;10479141;28;20044;-80
2021/08/05 06:32:03;;;;;;;19.30;17.13;;;;;;;24.19;57.30;101024.72;10500241;28;20119;-80
2021/08/05 06:37:03;;;;;;;21.40;16.48;;;;;;;24.29;56.03;100977.59;10480513;28;20438;-80
2021/08/05 06:42:04;;;;;;;21.58;16.45;;;;;;;24.85;55.71;101022.59;10460499;28;20130;-80
2021/08/05 06:47:05;;;;;;;20.73;17.10;;;;;;;25.56;54.37;101016.38;10477365;28;20052;-80
2021/08/05 06:52:05;;;;;;;17.42;15.63;;;;;;;25.32;54.59;101001.66;10476624;28;20020;-80
2021/08/05 06:57:06;;;;;;;16.75;13.68;;;;;;;24.20;54.39;101023.59;10476259;28;20060;-80
2021/08/05 07:02:06;;;;;;;16.85;14.77;;;;;;;23.52;53.95;101031.63;10492126;28;20094;-80
2021/08/05 07:07:07;;;;;;;14.45;13.00;;;;;;;23.10;56.21;101018.97;10475939;28;20040;-80
2021/08/05 07:12:07;;;;;;;16.52;14.73;;;;;;;22.95;56.12;101022.59;10474847;28;20032;-80
2021/08/05 07:17:09;;;;;;;14.77;13.30;;;;;;;22.48;56.79;100994.13;10474146;28;20040;-80
2021/08/05 07:22:09;;;;;;;19.75;13.88;;;;;;;22.61;56.58;101011.25;10457213;28;20048;-79
2021/08/05 07:27:10;;;;;;;15.88;13.55;;;;;;;22.62;57.66;101012.91;10472841;28;20123;-79
2021/08/05 07:32:10;;;;;;;17.75;14.95;;;;;;;22.92;56.45;101004.63;10491985;28;20036;-79
2021/08/05 07:37:11;;;;;;;16.80;12.73;;;;;;;22.44;56.36;100957.16;10474883;28;20446;-80
2021/08/05 07:42:13;;;;;;;17.05;13.27;;;;;;;22.62;56.87;100971.50;10492185;28;20052;-79
2021/08/05 07:47:14;;;;;;;18.77;15.60;;;;;;;22.68;58.87;101003.50;10473594;28;20036;-79
2021/08/05 07:52:14;;;;;;;16.67;13.82;;;;;;;22.48;57.59;101004.34;10474820;28;20067;-80
2021/08/05 07:57:15;;;;;;;17.65;15.48;;;;;;;22.59;57.80;101011.53;10475398;28;20443;-79
2021/08/05 08:02:15;;;;;;;20.25;17.35;;;;;;;22.66;57.60;100978.97;10475332;28;20498;-79
2021/08/05 08:07:16;;;;;;;23.00;17.85;;;;;;;23.23;57.50;101004.59;10476136;28;20079;-79
2021/08/05 08:12:16;;;;;;;32.83;15.68;;;;;;;23.81;55.39;101001.41;10476454;28;20115;-79
2021/08/05 08:17:17;;;;;;;22.05;15.70;;;;;;;24.79;54.28;100936.78;10476108;28;20113;-79
2021/08/05 08:22:17;;;;;;;16.45;14.60;;;;;;;26.02;51.25;100998.31;10476038;28;20032;-79
2021/08/05 08:27:19;;;;;;;22.60;17.95;;;;;;;27.24;49.46;100982.44;10459600;28;20125;-79
2021/08/05 08:32:19;;;;;;;27.73;19.77;;;;;;;28.05;49.81;100984.69;10493290;28;20063;-79
2021/08/05 08:37:19;;;;;;;30.73;20.45;;;;;;;28.33;48.59;100987.38;10476884;28;20395;-79
2021/08/05 08:42:20;;;;;;;21.02;17.23;;;;;;;28.90;45.72;100957.78;10473088;28;20056;-79
2021/08/05 08:47:21;;;;;;;21.98;17.33;;;;;;;29.41;44.75;100987.09;10449606;28;20032;-79
2021/08/05 08:52:25;;;;;;;25.55;19.15;;;;;;;29.95;45.43;100977.72;10484950;28;20090;-79
2021/08/05 08:57:31;;;;;;;19.98;18.00;;;;;;;29.79;46.04;100969.81;10486794;28;20105;-79
2021/08/05 09:02:31;;;;;;;20.77;18.73;;;;;;;29.81;43.85;100953.56;10473882;28;20055;-79
2021/08/05 09:07:33;;;;;;;20.80;17.33;;;;;;;29.73;43.11;100926.47;10455920;28;20132;-79
2021/08/05 09:12:42;;;;;;;22.13;19.75;;;;;;;29.49;42.24;100923.28;10610002;27;1272192;-80
2021/08/05 09:17:43;;;;;;;19.73;17.70;;;;;;;29.81;43.47;100949.97;10605248;28;20087;-80
2021/08/05 09:22:44;;;;;;;18.77;16.50;;;;;;;29.58;42.54;100952.00;10583663;28;20036;-80
2021/08/05 09:27:45;;;;;;;18.90;16.55;;;;;;;29.97;40.60;100944.72;10585884;28;20115;-79
2021/08/05 09:32:45;;;;;;;14.07;11.85;;;;;;;30.37;40.09;100909.06;10575533;28;20088;-79
2021/08/05 09:37:46;;;;;;;14.00;12.70;;;;;;;31.03;44.74;100897.56;10591679;28;20063;-80
2021/08/05 09:42:56;;;;;;;12.88;11.40;;;;;;;30.80;41.19;100922.97;10590761;28;20108;-79
2021/08/05 09:47:58;;;;;;;15.82;13.85;;;;;;;31.35;38.80;100912.06;10609755;28;20180;-79
2021/08/05 09:53:09;;;;;;;15.63;13.93;;;;;;;31.21;43.57;100924.28;10592316;28;20046;-79
2021/08/05 09:58:09;;;;;;;13.10;10.73;;;;;;;32.09;37.74;100902.97;10590262;28;20035;-79
2021/08/05 10:03:10;;;;;;;14.00;12.75;;;;;;;31.28;37.53;100857.44;10591061;28;20032;-79
2021/08/05 10:08:10;;;;;;;13.10;11.98;;;;;;;30.41;37.51;100870.94;10610758;28;20339;-79
2021/08/05 10:13:11;;;;;;;14.90;12.13;;;;;;;29.15;38.59;100855.09;10593598;28;20397;-79
2021/08/05 10:18:11;;;;;;;12.95;11.60;;;;;;;29.33;41.73;100811.34;10594091;28;20047;-79
2021/08/05 10:23:11;;;;;;;17.38;11.30;;;;;;;30.75;37.29;100899.94;10569335;28;20094;-79
2021/08/05 10:28:13;;;;;;;14.55;11.48;;;;;;;31.07;39.20;100878.94;10582688;28;20085;-80
2021/08/05 10:33:13;;;;;;;15.13;12.32;;;;;;;32.03;38.24;100886.72;10583026;28;20035;-79
2021/08/05 10:38:16;;;;;;;16.50;12.35;;;;;;;32.04;40.65;100888.38;10581632;28;20095;-79
2021/08/05 10:43:16;;;;;;;18.45;12.48;;;;;;;31.23;39.44;100882.78;10582584;28;20498;-79
2021/08/05 10:48:17;;;;;;;12.80;11.60;;;;;;;30.07;37.35;100827.91;10563748;28;20038;-79
2021/08/05 10:53:32;;;;;;;10.70;9.52;;;;;;;31.54;42.11;100862.06;10546142;28;20031;-79
2021/08/05 10:58:33;;;;;;;11.40;9.07;;;;;;;31.32;38.55;100853.97;10563716;28;20089;-79
2021/08/05 11:03:35;;;;;;;10.52;9.45;;;;;;;32.71;42.19;100866.78;10564581;28;20124;-79
2021/08/05 11:08:36;;;;;;;10.32;9.20;;;;;;;31.65;36.01;100849.31;10580294;28;20579;-80
2021/08/05 11:13:36;;;;;;;9.75;8.77;;;;;;;31.06;37.85;100840.94;10559934;28;20040;-79
2021/08/05 11:18:36;;;;;;;13.13;9.45;;;;;;;31.42;34.98;100837.59;10560296;28;20062;-80
2021/08/05 11:23:38;;;;;;;17.75;9.20;;;;;;;30.22;39.24;100836.97;10578488;28;20062;-80
2021/08/05 11:28:41;;;;;;;10.73;9.73;;;;;;;29.16;35.05;100826.06;10540996;28;20067;-80
2021/08/05 11:33:44;;;;;;;9.35;8.45;;;;;;;30.32;40.45;100815.09;10558168;28;20471;-79
2021/08/05 11:39:02;;;;;;;9.52;8.63;;;;;;;30.23;41.93;100816.25;10579222;28;20039;-79
2021/08/05 11:44:29;;;;;;;13.18;10.38;;;;;;;30.09;42.64;100800.50;10579350;28;20035;-80
2021/08/05 11:49:48;;;;;;;13.00;10.07;;;;;;;28.77;40.62;100783.13;10578650;28;20148;-79
2021/08/05 11:54:57;;;;;;;11.13;10.00;;;;;;;28.50;41.72;100731.25;10545895;28;20043;-79
2021/08/05 11:59:57;;;;;;;9.35;8.48;;;;;;;29.96;40.63;100767.97;10560078;28;20027;-80
2021/08/05 12:04:58;;;;;;;13.98;11.95;;;;;;;31.15;38.98;100777.38;10543045;28;20449;-79
2021/08/05 12:10:09;;;;;;;12.23;10.15;;;;;;;30.39;38.33;100736.34;10577817;28;20058;-79
2021/08/05 12:15:12;;;;;;;9.35;8.38;;;;;;;29.07;38.05;100759.13;10578036;28;20369;-79
2021/08/05 12:20:20;;;;;;;14.02;11.55;;;;;;;28.44;39.55;100752.03;10559918;28;20032;-79
2021/08/05 12:25:42;;;;;;;13.80;11.15;;;;;;;28.13;41.29;100757.59;10560133;28;20118;-79
2021/08/05 12:30:48;;;;;;;16.50;10.85;;;;;;;28.78;40.74;100751.34;10576810;28;20032;-79
2021/08/05 12:36:07;;;;;;;11.50;10.40;;;;;;;29.96;44.48;100750.41;10576958;28;20494;-79
2021/08/05 12:41:08;;;;;;;15.10;11.70;;;;;;;30.55;40.68;100726.22;10557720;28;20550;-79
2021/08/05 12:46:09;;;;;;;14.88;11.52;;;;;;;29.95;38.33;100726.44;10541573;28;20052;-80
2021/08/05 12:51:15;;;;;;;17.90;11.60;;;;;;;29.87;39.38;100716.94;10561839;28;20034;-79
2021/08/05 12:56:15;;;;;;;14.07;12.67;;;;;;;28.56;38.75;100681.75;10544433;28;20109;-80
2021/08/05 13:01:20;;;;;;;17.13;10.38;;;;;;;28.70;41.86;100704.75;10560877;28;20077;-79
2021/08/05 13:06:21;;;;;;;11.65;10.45;;;;;;;29.52;43.70;100721.75;10542497;28;20027;-80
2021/08/05 13:11:39;;;;;;;12.75;11.52;;;;;;;29.24;44.03;100677.44;10540728;28;20051;-79
2021/08/05 13:16:40;;;;;;;13.63;12.30;;;;;;;29.24;40.93;100710.91;10542156;28;20035;-79
2021/08/05 13:21:43;;;;;;;13.73;11.65;;;;;;;29.76;40.41;100707.28;10574413;28;20024;-79
2021/08/05 13:26:45;;;;;;;13.70;12.48;;;;;;;29.08;40.15;100648.44;10575539;28;20032;-80
2021/08/05 13:32:00;;;;;;;16.67;13.02;;;;;;;28.82;37.88;100701.34;10574427;28;20032;-79
2021/08/05 13:37:00;;;;;;;13.68;12.27;;;;;;;27.97;38.86;100635.53;10552526;28;20047;-80
2021/08/05 13:42:01;;;;;;;18.63;12.85;;;;;;;28.97;40.75;100676.59;10574108;28;20046;-79
2021/08/05 13:47:02;;;;;;;15.07;12.75;;;;;;;29.15;38.66;100671.88;10554866;28;20170;-79
2021/08/05 13:52:05;;;;;;;15.73;13.30;;;;;;;28.38;39.29;100648.28;10572609;28;20386;-79
2021/08/05 13:57:05;;;;;;;17.15;15.38;;;;;;;27.48;43.02;100637.38;10574243;28;20438;-79
2021/08/05 14:02:06;;;;;;;18.73;15.55;;;;;;;27.40;44.07;100674.28;10576840;28;20036;-79
2021/08/05 14:07:09;;;;;;;19.75;16.48;;;;;;;27.53;43.32;100600.25;10557879;28;20090;-79
2021/08/05 14:12:10;;;;;;;24.83;15.45;;;;;;;28.23;45.99;100657.88;10578447;28;20467;-79
2021/08/05 14:17:11;;;;;;;18.48;13.88;;;;;;;28.77;44.75;100585.25;10578335;28;20122;-79
2021/08/05 14:22:11;;;;;;;15.07;13.57;;;;;;;29.82;39.46;100653.72;10578566;28;20036;-79
2021/08/05 14:27:12;;;;;;;13.88;12.48;;;;;;;29.20;38.38;100612.34;10559177;28;20059;-79
2021/08/05 14:32:12;;;;;;;14.93;13.35;;;;;;;29.29;38.51;100624.31;10578815;28;20024;-79
2021/08/05 14:37:13;;;;;;;18.50;14.23;;;;;;;28.61;38.32;100614.75;10578280;28;20039;-79
2021/08/05 14:42:14;;;;;;;13.77;12.48;;;;;;;29.38;38.88;100610.31;10577152;28;20074;-79
2021/08/05 14:47:15;;;;;;;17.25;13.05;;;;;;;28.77;38.86;100610.34;10542083;28;20023;-79
2021/08/05 14:52:15;;;;;;;14.60;13.23;;;;;;;28.80;38.43;100590.19;10576295;28;20481;-79
2021/08/05 14:57:16;;;;;;;11.77;10.65;;;;;;;29.92;39.78;100605.06;10555969;28;20039;-79
2021/08/05 15:02:16;;;;;;;12.85;9.95;;;;;;;30.61;37.08;100563.94;10557468;28;20040;-79
2021/08/05 15:07:17;;;;;;;10.93;9.82;;;;;;;30.32;38.71;100582.41;10521831;28;20092;-79
2021/08/05 15:12:17;;;;;;;13.45;7.35;;;;;;;30.32;36.24;100534.91;10576593;28;20048;-79
2021/08/05 15:17:17;;;;;;;10.27;9.45;;;;;;;30.55;36.25;100529.78;10559972;28;20864;-79
2021/08/05 15:22:18;;;;;;;11.82;10.40;;;;;;;29.97;39.22;100557.44;10577749;28;20476;-79
2021/08/05 15:27:18;;;;;;;11.00;10.02;;;;;;;29.23;37.99;100564.25;10538947;28;20101;-79
2021/08/05 15:32:19;;;;;;;10.93;10.00;;;;;;;28.27;38.72;100497.41;10573511;28;20450;-79
2021/08/05 15:37:19;;;;;;;14.55;9.38;;;;;;;28.59;39.24;100541.81;10572218;28;20039;-79
2021/08/05 15:42:20;;;;;;;17.50;11.88;;;;;;;28.92;38.75;100517.88;10573763;28;20039;-79
2021/08/05 15:47:20;;;;;;;11.02;9.95;;;;;;;29.13;41.02;100550.66;10556332;28;20046;-79
2021/08/05 15:52:20;;;;;;;11.25;10.15;;;;;;;28.71;38.73;100516.91;10576322;28;20031;-78
2021/08/05 15:57:21;;;;;;;22.05;10.98;;;;;;;28.56;38.55;100529.38;10556607;28;20431;-79
2021/08/05 16:02:21;;;;;;;12.18;10.95;;;;;;;28.18;41.82;100403.88;10576227;28;20074;-79
2021/08/05 16:07:22;;;;;;;13.88;11.02;;;;;;;28.62;39.03;100528.06;10575843;28;20072;-79
2021/08/05 16:12:22;;;;;;;28.13;8.57;;;;;;;28.85;38.40;100500.84;10577232;28;20051;-79
2021/08/05 16:17:23;;;;;;;14.95;10.23;;;;;;;28.49;37.53;100425.97;10574336;28;20470;-79
2021/08/05 16:22:25;;;;;;;8.27;7.43;;;;;;;28.42;37.53;100510.03;10553391;28;20501;-79
2021/08/05 16:27:25;;;;;;;8.20;6.45;;;;;;;27.33;40.81;100501.50;10553751;28;20481;-79
2021/08/05 16:32:26;;;;;;;10.38;6.93;;;;;;;27.04;39.00;100494.47;10573326;28;20075;-78
2021/08/05 16:37:26;;;;;;;9.63;7.65;;;;;;;26.76;40.25;100463.22;10571998;28;20050;-79
2021/08/05 16:42:27;;;;;;;12.85;8.07;;;;;;;26.84;40.77;100475.56;10571570;28;20190;-79
2021/08/05 16:47:29;;;;;;;9.65;8.40;;;;;;;26.46;41.16;100456.47;10552181;28;20107;-79
2021/08/05 16:52:31;;;;;;;10.05;8.57;;;;;;;26.42;41.65;100472.13;10552697;28;20032;-79
2021/08/05 16:57:34;;;;;;;10.50;7.43;;;;;;;25.98;42.02;100396.81;10551891;28;20096;-79
2021/08/05 17:02:35;;;;;;;10.52;8.10;;;;;;;26.43;41.95;100454.31;10551940;28;20359;-79
2021/08/05 17:07:35;;;;;;;7.50;6.57;;;;;;;26.53;41.31;100454.09;10535091;28;20039;-79
2021/08/05 17:12:36;;;;;;;7.15;6.43;;;;;;;26.74;46.07;100451.63;10510967;28;20177;-78
2021/08/05 17:17:36;;;;;;;8.00;7.18;;;;;;;25.82;42.57;100414.94;10528660;28;20044;-79
2021/08/05 17:22:37;;;;;;;24.95;7.35;;;;;;;25.80;45.25;100428.25;10530213;28;20047;-79
2021/08/05 17:27:37;;;;;;;7.78;6.80;;;;;;;25.58;44.45;100453.16;10530365;28;20085;-79
2021/08/05 17:32:38;;;;;;;7.07;6.47;;;;;;;25.44;45.38;100442.06;10535111;28;20048;-80
2021/08/05 17:37:39;;;;;;;9.45;7.53;;;;;;;25.21;44.50;100444.75;10537497;28;20124;-79
2021/08/05 17:42:42;;;;;;;7.93;7.13;;;;;;;24.71;46.43;100413.22;10537078;28;20516;-78
2021/08/05 17:47:43;;;;;;;7.45;6.78;;;;;;;25.12;45.42;100441.03;10536938;28;20104;-79
2021/08/05 17:52:44;;;;;;;5.63;5.10;;;;;;;24.95;48.21;100432.44;10533820;28;20048;-79
2021/08/05 17:57:44;;;;;;;7.82;7.25;;;;;;;24.73;46.00;100422.03;10534869;28;20072;-79
2021/08/05 18:02:45;;;;;;;7.82;7.20;;;;;;;24.59;47.42;100414.53;10535416;28;20409;-79
2021/08/05 18:07:47;;;;;;;6.28;5.78;;;;;;;24.44;46.41;100409.25;10518629;28;20107;-79
2021/08/05 18:12:47;;;;;;;9.38;7.40;;;;;;;24.61;45.92;100410.66;10533803;28;20147;-79
2021/08/05 18:17:48;;;;;;;8.95;7.15;;;;;;;24.40;46.04;100401.81;10535831;28;20048;-79
2021/08/05 18:22:48;;;;;;;10.23;8.15;;;;;;;24.21;46.24;100401.84;10535726;28;20050;-79
2021/08/05 18:27:49;;;;;;;7.68;6.30;;;;;;;24.07;47.30;100405.38;10534228;28;20524;-79
2021/08/05 18:32:49;;;;;;;6.93;6.32;;;;;;;24.11;48.28;100402.84;10535126;28;20036;-79
2021/08/05 18:37:50;;;;;;;6.95;5.90;;;;;;;23.89;46.82;100390.41;10531934;28;20096;-80
2021/08/05 18:42:51;;;;;;;7.18;6.15;;;;;;;24.01;48.16;100383.63;10533845;28;20070;-79
2021/08/05 18:47:51;;;;;;;6.30;5.13;;;;;;;23.93;47.71;100392.59;10531036;28;20092;-79
2021/08/05 18:52:52;;;;;;;6.95;5.07;;;;;;;23.70;47.30;100383.25;10532227;28;20035;-78
2021/08/05 18:57:53;;;;;;;8.38;6.38;;;;;;;23.41;47.40;100334.41;10531089;28;20067;-79
2021/08/05 19:02:53;;;;;;;6.05;5.45;;;;;;;23.56;47.47;100383.13;10532183;28;20044;-79
2021/08/05 19:07:54;;;;;;;6.30;5.43;;;;;;;23.53;48.01;100384.53;10512703;28;20090;-78
2021/08/05 19:12:55;;;;;;;8.35;4.75;;;;;;;23.38;48.25;100371.75;10513072;28;20080;-78
2021/08/05 19:17:56;;;;;;;5.78;5.35;;;;;;;23.18;48.87;100370.06;10530260;28;20036;-79
2021/08/05 19:22:56;;;;;;;8.80;5.72;;;;;;;23.06;48.95;100355.03;10531665;28;20088;-78
2021/08/05 19:27:57;;;;;;;7.10;6.22;;;;;;;22.95;49.72;100357.91;10530994;28;20081;-79
2021/08/05 19:32:57;;;;;;;7.43;5.25;;;;;;;22.62;49.83;100318.22;10529437;28;20481;-80
2021/08/05 19:37:58;;;;;;;5.00;4.55;;;;;;;22.80;49.79;100357.22;10527644;28;20059;-81
2021/08/05 19:42:58;;;;;;;5.75;5.15;;;;;;;22.69;49.91;100353.75;10527935;28;20119;-78
2021/08/05 19:47:59;;;;;;;6.07;4.93;;;;;;;22.56;50.24;100347.00;10531145;28;20127;-78
2021/08/05 19:53:00;;;;;;;6.20;5.60;;;;;;;22.46;50.59;100356.19;10527536;28;20074;-78
2021/08/05 19:58:00;;;;;;;4.45;4.10;;;;;;;22.33;51.14;100356.84;10529290;28;20055;-78
2021/08/05 20:03:01;;;;;;;4.57;4.07;;;;;;;22.25;51.00;100344.50;10528325;28;20064;-79
2021/08/05 20:08:01;;;;;;;6.28;5.47;;;;;;;22.12;51.63;100344.31;10528138;28;20522;-79
2021/08/05 20:13:03;;;;;;;13.38;4.53;;;;;;;22.05;51.77;100330.84;10568260;28;20055;-78
2021/08/05 20:18:03;;;;;;;12.43;5.63;;;;;;;22.15;52.10;100344.56;10548763;28;20043;-79
2021/08/05 20:23:04;;;;;;;4.22;3.80;;;;;;;22.09;52.52;100320.88;10498752;28;20035;-80
2021/08/05 20:28:04;;;;;;;4.85;4.35;;;;;;;22.10;52.92;100327.22;10526618;28;20137;-79
2021/08/05 20:33:05;;;;;;;5.00;4.47;;;;;;;22.17;52.79;100324.97;10508213;28;20043;-78
2021/08/05 20:38:06;;;;;;;6.13;5.05;;;;;;;22.23;52.69;100315.56;10509330;28;20046;-78
2021/08/05 20:43:06;;;;;;;5.93;5.38;;;;;;;22.17;52.44;100286.38;10530229;28;20409;-79
2021/08/05 20:48:07;;;;;;;6.03;5.43;;;;;;;22.34;52.76;100302.50;10531213;28;20155;-79
2021/08/05 20:53:07;;;;;;;6.90;5.03;;;;;;;22.52;52.46;100302.56;10512118;28;20149;-79
2021/08/05 20:58:07;;;;;;;10.18;5.78;;;;;;;22.59;52.42;100307.78;10531697;28;20043;-79
2021/08/05 21:03:08;;;;;;;9.70;4.43;;;;;;;22.21;53.23;100310.34;10513755;28;20043;-78
2021/08/05 21:08:09;;;;;;;3.58;3.28;;;;;;;21.89;55.04;100313.59;10532385;28;20416;-78
2021/08/05 21:13:09;;;;;;;6.32;4.18;;;;;;;21.50;55.48;100239.19;10530445;28;20197;-79
2021/08/05 21:18:10;;;;;;;5.60;4.32;;;;;;;21.09;57.23;100221.00;10527831;28;20042;-79
2021/08/05 21:23:11;;;;;;;5.38;3.50;;;;;;;21.88;55.67;100281.63;10510040;28;20032;-79
2021/08/05 21:28:11;;;;;;;4.72;3.38;;;;;;;22.19;55.00;100262.91;10529841;28;20423;-79
2021/08/05 21:33:15;;;;;;;5.45;4.25;;;;;;;22.35;56.59;100260.00;10511185;28;20462;-79
2021/08/05 21:38:16;;;;;;;5.00;3.83;;;;;;;22.20;56.54;100236.16;10495521;28;20137;-79
2021/08/05 21:43:16;;;;;;;4.97;3.65;;;;;;;22.27;55.21;100242.13;10512749;28;20427;-79
2021/08/05 21:48:17;;;;;;;5.43;3.20;;;;;;;22.26;55.20;100230.28;10529945;28;20032;-79
2021/08/05 21:53:17;;;;;;;4.10;3.63;;;;;;;22.21;55.50;100215.75;10512484;28;20428;-79
2021/08/05 21:58:18;;;;;;;5.55;4.63;;;;;;;21.96;56.17;100206.59;10512185;28;20477;-80
2021/08/05 22:03:18;;;;;;;4.75;4.30;;;;;;;21.97;56.03;100194.44;10531071;28;20138;-79
2021/08/05 22:08:18;;;;;;;5.32;4.78;;;;;;;21.76;56.42;100170.94;10531867;28;20047;-79
2021/08/05 22:13:19;;;;;;;6.07;5.47;;;;;;;21.73;57.27;100182.53;10514109;28;20040;-79
2021/08/05 22:18:20;;;;;;;5.60;4.43;;;;;;;21.31;58.21;100110.44;10517982;28;20044;-79
2021/08/05 22:23:20;;;;;;;5.28;4.10;;;;;;;21.69;57.85;100164.94;10538919;28;20478;-79
2021/08/05 22:28:21;;;;;;;10.15;5.65;;;;;;;21.80;57.96;100158.22;10537050;28;20079;-79
2021/08/05 22:33:21;;;;;;;7.00;4.57;;;;;;;21.92;57.33;100158.66;10537254;28;20103;-79
2021/08/05 22:38:22;;;;;;;5.97;4.95;;;;;;;21.74;57.58;100145.59;10521224;28;20131;-79
2021/08/05 22:43:24;;;;;;;8.38;4.28;;;;;;;21.95;57.82;100154.47;10542615;28;20040;-79
2021/08/05 22:48:25;;;;;;;5.15;4.70;;;;;;;21.89;57.86;100152.88;10541711;28;20036;-79